Pagrindinis puslapis
METAR-TAF:

METAR-TAF

Oro uostai :

Čijampino oro uostas

Roma Čijampino, Italija

platuma: 41-47N, ilguma: 012-35E, Aukštis: 129 m

Dabartinis oras

Ataskaita buvo paskelbta 21 minutes, ne 18:20 UTC
Vėjas 3 kt iš Šiaurės Rytų
Temperatūra 20°C
Drėgmė 73%
Slėgis 1016 hPa
Matomumas 10 km arba daugiau
Išsisklaidę debesys ne aukštis 5000 ft

METAR: LIRA 191820Z 05003KT 9999 SCT050 20/15 Q1016

Laikas: 20:41 (18:41 UTC)

Prognozė

Ataskaita buvo paskelbta 1 valandą ir 41 minutes, ne 17:00 UTC
Prognozė galioja nuo 19 metu 18 UTC su 20 metu 18 UTC
Vėjas 8 kt iš Pietryčių
Matomumas 10 km arba daugiau
Išsisklaidę debesys ne aukštis 4000 ft
Laikinai
nuo 19 metu 22 UTC su 20 metu 03 UTC
lietus

TAF: LIRA 191700Z 1918/2018 14008KT 9999 SCT040 TEMPO 1922/2003 SHRA

Orai ataskaitas ir orų prognozės (METAR, TAF).

turimą stotys yra geltonos ir raudonos taškus žemėlapyje.

Perkelti pele per norėdami pamatyti stoties vardą.

Tada spustelėkite, norėdami matyti oro stebėjimo ir prognozės.

Norėdami pakeisti žemėlapį: spustelėkite ant žalios mygtukų su juodo kryžiaus žemyn,; žalią mygtuką su brūkšneliu, jei norite nutolinti; arba žalių rodyklių gretimoms žemėlapius.


METAR-TAF: